sensor_id;sensor_type;location;lat;lon;timestamp;temperature;humidity
57664;DHT22;43493;53.098;6.064;2023-12-04T00:00:46;0.90;99.90
57664;DHT22;43493;53.098;6.064;2023-12-04T00:03:11;0.80;99.90
57664;DHT22;43493;53.098;6.064;2023-12-04T00:05:37;0.80;99.90
57664;DHT22;43493;53.098;6.064;2023-12-04T00:08:03;0.80;99.90
57664;DHT22;43493;53.098;6.064;2023-12-04T00:10:28;0.80;99.90
57664;DHT22;43493;53.098;6.064;2023-12-04T00:12:54;0.90;99.90
57664;DHT22;43493;53.098;6.064;2023-12-04T00:15:20;0.80;99.90
57664;DHT22;43493;53.098;6.064;2023-12-04T00:17:47;0.80;99.90
57664;DHT22;43493;53.098;6.064;2023-12-04T00:20:13;0.80;99.90
57664;DHT22;43493;53.098;6.064;2023-12-04T00:22:38;0.80;99.90
57664;DHT22;43493;53.098;6.064;2023-12-04T00:25:05;0.80;99.90
57664;DHT22;43493;53.098;6.064;2023-12-04T00:27:31;0.90;99.90
57664;DHT22;43493;53.098;6.064;2023-12-04T00:29:57;0.90;99.90
57664;DHT22;43493;53.098;6.064;2023-12-04T00:32:23;0.80;99.90
57664;DHT22;43493;53.098;6.064;2023-12-04T00:34:49;0.80;99.90
57664;DHT22;43493;53.098;6.064;2023-12-04T00:37:14;0.80;99.90
57664;DHT22;43493;53.098;6.064;2023-12-04T00:39:40;0.80;99.90
57664;DHT22;43493;53.098;6.064;2023-12-04T00:42:06;0.90;99.90
57664;DHT22;43493;53.098;6.064;2023-12-04T00:44:31;0.80;99.90
57664;DHT22;43493;53.098;6.064;2023-12-04T00:46:57;0.90;99.90
57664;DHT22;43493;53.098;6.064;2023-12-04T00:49:23;0.90;99.90
57664;DHT22;43493;53.098;6.064;2023-12-04T00:51:49;0.90;99.90
57664;DHT22;43493;53.098;6.064;2023-12-04T00:54:15;0.90;99.90
57664;DHT22;43493;53.098;6.064;2023-12-04T00:56:41;0.80;99.90
57664;DHT22;43493;53.098;6.064;2023-12-04T00:59:10;0.90;99.90
57664;DHT22;43493;53.098;6.064;2023-12-04T01:01:37;0.90;99.90
57664;DHT22;43493;53.098;6.064;2023-12-04T01:04:03;0.90;99.90
57664;DHT22;43493;53.098;6.064;2023-12-04T01:06:29;0.90;99.90
57664;DHT22;43493;53.098;6.064;2023-12-04T01:08:55;1.00;99.90
57664;DHT22;43493;53.098;6.064;2023-12-04T01:11:21;0.90;99.90
57664;DHT22;43493;53.098;6.064;2023-12-04T01:13:48;0.90;99.90
57664;DHT22;43493;53.098;6.064;2023-12-04T01:16:14;0.90;99.90
57664;DHT22;43493;53.098;6.064;2023-12-04T01:18:40;0.90;99.90
57664;DHT22;43493;53.098;6.064;2023-12-04T01:21:07;1.00;99.90
57664;DHT22;43493;53.098;6.064;2023-12-04T01:23:37;1.00;99.90
57664;DHT22;43493;53.098;6.064;2023-12-04T01:26:03;0.90;99.90
57664;DHT22;43493;53.098;6.064;2023-12-04T01:28:29;0.90;99.90
57664;DHT22;43493;53.098;6.064;2023-12-04T01:30:55;0.90;99.90
57664;DHT22;43493;53.098;6.064;2023-12-04T01:33:21;1.00;99.90
57664;DHT22;43493;53.098;6.064;2023-12-04T01:35:46;1.10;99.90
57664;DHT22;43493;53.098;6.064;2023-12-04T01:38:12;0.90;99.90
57664;DHT22;43493;53.098;6.064;2023-12-04T01:40:38;1.00;99.90
57664;DHT22;43493;53.098;6.064;2023-12-04T01:43:04;0.90;99.90
57664;DHT22;43493;53.098;6.064;2023-12-04T01:45:31;1.00;99.90
57664;DHT22;43493;53.098;6.064;2023-12-04T01:47:57;1.00;99.90
57664;DHT22;43493;53.098;6.064;2023-12-04T01:50:24;1.00;99.90
57664;DHT22;43493;53.098;6.064;2023-12-04T01:52:52;1.00;99.90
57664;DHT22;43493;53.098;6.064;2023-12-04T01:55:17;1.00;99.90
57664;DHT22;43493;53.098;6.064;2023-12-04T01:57:43;1.00;99.90
57664;DHT22;43493;53.098;6.064;2023-12-04T02:00:10;1.00;99.90
57664;DHT22;43493;53.098;6.064;2023-12-04T02:02:41;1.00;99.90
57664;DHT22;43493;53.098;6.064;2023-12-04T02:05:09;1.00;99.90
57664;DHT22;43493;53.098;6.064;2023-12-04T02:07:36;1.00;99.90
57664;DHT22;43493;53.098;6.064;2023-12-04T02:10:03;1.00;99.90
57664;DHT22;43493;53.098;6.064;2023-12-04T02:12:29;1.00;99.90
57664;DHT22;43493;53.098;6.064;2023-12-04T02:14:55;0.90;99.90
57664;DHT22;43493;53.098;6.064;2023-12-04T02:17:22;1.00;99.90
57664;DHT22;43493;53.098;6.064;2023-12-04T02:19:48;1.00;99.90
57664;DHT22;43493;53.098;6.064;2023-12-04T02:22:14;1.00;99.90
57664;DHT22;43493;53.098;6.064;2023-12-04T02:24:39;1.00;99.90
57664;DHT22;43493;53.098;6.064;2023-12-04T02:27:18;1.00;99.90
57664;DHT22;43493;53.098;6.064;2023-12-04T02:29:59;1.00;99.90
57664;DHT22;43493;53.098;6.064;2023-12-04T02:32:31;1.00;99.90
57664;DHT22;43493;53.098;6.064;2023-12-04T02:34:59;1.00;99.90
57664;DHT22;43493;53.098;6.064;2023-12-04T02:37:28;1.00;99.90
57664;DHT22;43493;53.098;6.064;2023-12-04T02:39:54;1.00;99.90
57664;DHT22;43493;53.098;6.064;2023-12-04T02:42:21;1.00;99.90
57664;DHT22;43493;53.098;6.064;2023-12-04T02:44:47;1.00;99.90
57664;DHT22;43493;53.098;6.064;2023-12-04T02:47:14;1.10;99.90
57664;DHT22;43493;53.098;6.064;2023-12-04T02:49:40;1.00;99.90
57664;DHT22;43493;53.098;6.064;2023-12-04T02:52:05;1.10;99.90
57664;DHT22;43493;53.098;6.064;2023-12-04T02:54:31;1.10;99.90
57664;DHT22;43493;53.098;6.064;2023-12-04T02:56:57;1.00;99.90
57664;DHT22;43493;53.098;6.064;2023-12-04T02:59:22;1.00;99.90
57664;DHT22;43493;53.098;6.064;2023-12-04T03:01:48;0.90;99.90
57664;DHT22;43493;53.098;6.064;2023-12-04T03:04:14;1.00;99.90
57664;DHT22;43493;53.098;6.064;2023-12-04T03:06:39;1.00;99.90
57664;DHT22;43493;53.098;6.064;2023-12-04T03:09:05;1.00;99.90
57664;DHT22;43493;53.098;6.064;2023-12-04T03:11:31;1.00;99.90
57664;DHT22;43493;53.098;6.064;2023-12-04T03:13:59;1.00;99.90
57664;DHT22;43493;53.098;6.064;2023-12-04T03:16:25;1.10;99.90
57664;DHT22;43493;53.098;6.064;2023-12-04T03:18:50;1.00;99.90
57664;DHT22;43493;53.098;6.064;2023-12-04T03:21:16;1.00;99.90
57664;DHT22;43493;53.098;6.064;2023-12-04T03:23:42;1.10;99.90
57664;DHT22;43493;53.098;6.064;2023-12-04T03:26:08;1.10;99.90
57664;DHT22;43493;53.098;6.064;2023-12-04T03:28:34;1.10;99.90
57664;DHT22;43493;53.098;6.064;2023-12-04T03:31:00;1.10;99.90
57664;DHT22;43493;53.098;6.064;2023-12-04T03:33:26;1.10;99.90
57664;DHT22;43493;53.098;6.064;2023-12-04T03:35:51;1.10;99.90
57664;DHT22;43493;53.098;6.064;2023-12-04T03:38:17;1.10;99.90
57664;DHT22;43493;53.098;6.064;2023-12-04T03:40:43;1.00;99.90
57664;DHT22;43493;53.098;6.064;2023-12-04T03:43:08;1.10;99.90
57664;DHT22;43493;53.098;6.064;2023-12-04T03:45:34;1.10;99.90
57664;DHT22;43493;53.098;6.064;2023-12-04T03:47:59;1.10;99.90
57664;DHT22;43493;53.098;6.064;2023-12-04T03:50:25;1.10;99.90
57664;DHT22;43493;53.098;6.064;2023-12-04T03:52:51;1.00;99.90
57664;DHT22;43493;53.098;6.064;2023-12-04T03:55:16;1.00;99.90
57664;DHT22;43493;53.098;6.064;2023-12-04T03:57:45;1.10;99.90
57664;DHT22;43493;53.098;6.064;2023-12-04T04:00:11;1.10;99.90
57664;DHT22;43493;53.098;6.064;2023-12-04T04:02:39;1.10;99.90
57664;DHT22;43493;53.098;6.064;2023-12-04T04:05:05;1.00;99.90
57664;DHT22;43493;53.098;6.064;2023-12-04T04:07:31;1.00;99.90
57664;DHT22;43493;53.098;6.064;2023-12-04T04:09:57;1.00;99.90
57664;DHT22;43493;53.098;6.064;2023-12-04T04:12:22;1.00;99.90
57664;DHT22;43493;53.098;6.064;2023-12-04T04:14:48;1.00;99.90
57664;DHT22;43493;53.098;6.064;2023-12-04T04:17:14;1.00;99.90
57664;DHT22;43493;53.098;6.064;2023-12-04T04:19:40;1.00;99.90
57664;DHT22;43493;53.098;6.064;2023-12-04T04:22:06;1.00;99.90
57664;DHT22;43493;53.098;6.064;2023-12-04T04:24:32;1.00;99.90
57664;DHT22;43493;53.098;6.064;2023-12-04T04:26:58;1.00;99.90
57664;DHT22;43493;53.098;6.064;2023-12-04T04:29:23;1.00;99.90
57664;DHT22;43493;53.098;6.064;2023-12-04T04:31:49;1.10;99.90
57664;DHT22;43493;53.098;6.064;2023-12-04T04:34:15;1.00;99.90
57664;DHT22;43493;53.098;6.064;2023-12-04T04:36:42;1.00;99.90
57664;DHT22;43493;53.098;6.064;2023-12-04T04:39:08;1.00;99.90
57664;DHT22;43493;53.098;6.064;2023-12-04T04:41:36;1.00;99.90
57664;DHT22;43493;53.098;6.064;2023-12-04T04:44:02;1.00;99.90
57664;DHT22;43493;53.098;6.064;2023-12-04T04:46:27;1.00;99.90
57664;DHT22;43493;53.098;6.064;2023-12-04T04:48:54;1.00;99.90
57664;DHT22;43493;53.098;6.064;2023-12-04T04:51:19;0.90;99.90
57664;DHT22;43493;53.098;6.064;2023-12-04T04:53:45;1.00;99.90
57664;DHT22;43493;53.098;6.064;2023-12-04T04:56:11;1.00;99.90
57664;DHT22;43493;53.098;6.064;2023-12-04T04:58:36;1.00;99.90
57664;DHT22;43493;53.098;6.064;2023-12-04T05:01:02;1.00;99.90
57664;DHT22;43493;53.098;6.064;2023-12-04T05:03:28;1.00;99.90
57664;DHT22;43493;53.098;6.064;2023-12-04T05:05:54;0.90;99.90
57664;DHT22;43493;53.098;6.064;2023-12-04T05:08:19;0.90;99.90
57664;DHT22;43493;53.098;6.064;2023-12-04T05:10:45;1.00;99.90
57664;DHT22;43493;53.098;6.064;2023-12-04T05:13:11;1.00;99.90
57664;DHT22;43493;53.098;6.064;2023-12-04T05:15:36;0.90;99.90
57664;DHT22;43493;53.098;6.064;2023-12-04T05:18:02;1.00;99.90
57664;DHT22;43493;53.098;6.064;2023-12-04T05:20:28;1.00;99.90
57664;DHT22;43493;53.098;6.064;2023-12-04T05:22:53;1.00;99.90
57664;DHT22;43493;53.098;6.064;2023-12-04T05:25:19;0.80;99.90
57664;DHT22;43493;53.098;6.064;2023-12-04T05:27:45;1.00;99.90
57664;DHT22;43493;53.098;6.064;2023-12-04T05:30:11;1.10;99.90
57664;DHT22;43493;53.098;6.064;2023-12-04T05:32:37;1.00;99.90
57664;DHT22;43493;53.098;6.064;2023-12-04T05:35:03;1.00;99.90
57664;DHT22;43493;53.098;6.064;2023-12-04T05:37:28;1.00;99.90
57664;DHT22;43493;53.098;6.064;2023-12-04T05:39:54;1.10;99.90
57664;DHT22;43493;53.098;6.064;2023-12-04T05:42:20;1.00;99.90
57664;DHT22;43493;53.098;6.064;2023-12-04T05:44:45;1.00;99.90
57664;DHT22;43493;53.098;6.064;2023-12-04T05:47:11;1.10;99.90
57664;DHT22;43493;53.098;6.064;2023-12-04T05:49:37;1.00;99.90
57664;DHT22;43493;53.098;6.064;2023-12-04T05:52:03;1.00;99.90
57664;DHT22;43493;53.098;6.064;2023-12-04T05:54:28;1.00;99.90
57664;DHT22;43493;53.098;6.064;2023-12-04T05:56:54;1.00;99.90
57664;DHT22;43493;53.098;6.064;2023-12-04T05:59:20;1.00;99.90
57664;DHT22;43493;53.098;6.064;2023-12-04T06:01:45;1.00;99.90
57664;DHT22;43493;53.098;6.064;2023-12-04T06:04:11;1.00;99.90
57664;DHT22;43493;53.098;6.064;2023-12-04T06:06:37;1.00;99.90
57664;DHT22;43493;53.098;6.064;2023-12-04T06:09:03;1.00;99.90
57664;DHT22;43493;53.098;6.064;2023-12-04T06:11:29;1.10;99.90
57664;DHT22;43493;53.098;6.064;2023-12-04T06:13:54;1.00;99.90
57664;DHT22;43493;53.098;6.064;2023-12-04T06:16:20;1.00;99.90
57664;DHT22;43493;53.098;6.064;2023-12-04T06:18:46;1.00;99.90
57664;DHT22;43493;53.098;6.064;2023-12-04T06:21:11;1.10;99.90
57664;DHT22;43493;53.098;6.064;2023-12-04T06:23:37;0.90;99.90
57664;DHT22;43493;53.098;6.064;2023-12-04T06:26:03;0.90;99.90
57664;DHT22;43493;53.098;6.064;2023-12-04T06:28:29;1.00;99.90
57664;DHT22;43493;53.098;6.064;2023-12-04T06:30:55;1.00;99.90
57664;DHT22;43493;53.098;6.064;2023-12-04T06:33:21;1.00;99.90
57664;DHT22;43493;53.098;6.064;2023-12-04T06:35:47;1.00;99.90
57664;DHT22;43493;53.098;6.064;2023-12-04T06:38:15;1.00;99.90
57664;DHT22;43493;53.098;6.064;2023-12-04T06:40:42;1.00;99.90
57664;DHT22;43493;53.098;6.064;2023-12-04T06:43:08;1.00;99.90
57664;DHT22;43493;53.098;6.064;2023-12-04T06:45:34;1.00;99.90
57664;DHT22;43493;53.098;6.064;2023-12-04T06:48:00;0.90;99.90
57664;DHT22;43493;53.098;6.064;2023-12-04T06:50:26;0.90;99.90
57664;DHT22;43493;53.098;6.064;2023-12-04T06:52:52;0.90;99.90
57664;DHT22;43493;53.098;6.064;2023-12-04T06:55:18;1.00;99.90
57664;DHT22;43493;53.098;6.064;2023-12-04T06:57:43;0.90;99.90
57664;DHT22;43493;53.098;6.064;2023-12-04T07:00:10;0.90;99.90
57664;DHT22;43493;53.098;6.064;2023-12-04T07:02:40;0.90;99.90
57664;DHT22;43493;53.098;6.064;2023-12-04T07:05:06;0.90;99.90
57664;DHT22;43493;53.098;6.064;2023-12-04T07:07:32;0.90;99.90
57664;DHT22;43493;53.098;6.064;2023-12-04T07:09:58;0.90;99.90
57664;DHT22;43493;53.098;6.064;2023-12-04T07:12:24;0.90;99.90
57664;DHT22;43493;53.098;6.064;2023-12-04T07:14:50;0.90;99.90
57664;DHT22;43493;53.098;6.064;2023-12-04T07:17:15;0.90;99.90
57664;DHT22;43493;53.098;6.064;2023-12-04T07:19:42;0.90;99.90
57664;DHT22;43493;53.098;6.064;2023-12-04T07:22:08;0.90;99.90
57664;DHT22;43493;53.098;6.064;2023-12-04T07:24:34;0.90;99.90
57664;DHT22;43493;53.098;6.064;2023-12-04T07:26:59;0.90;99.90
57664;DHT22;43493;53.098;6.064;2023-12-04T07:29:25;0.90;99.90
57664;DHT22;43493;53.098;6.064;2023-12-04T07:31:51;0.90;99.90
57664;DHT22;43493;53.098;6.064;2023-12-04T07:34:17;0.90;99.90
57664;DHT22;43493;53.098;6.064;2023-12-04T07:36:42;1.00;99.90
57664;DHT22;43493;53.098;6.064;2023-12-04T07:39:10;0.90;99.90
57664;DHT22;43493;53.098;6.064;2023-12-04T07:41:36;0.90;99.90
57664;DHT22;43493;53.098;6.064;2023-12-04T07:44:02;1.00;99.90
57664;DHT22;43493;53.098;6.064;2023-12-04T07:46:29;1.00;99.90
57664;DHT22;43493;53.098;6.064;2023-12-04T07:48:55;0.90;99.90
57664;DHT22;43493;53.098;6.064;2023-12-04T07:51:20;0.90;99.90
57664;DHT22;43493;53.098;6.064;2023-12-04T07:53:46;1.00;99.90
57664;DHT22;43493;53.098;6.064;2023-12-04T07:56:13;0.90;99.90
57664;DHT22;43493;53.098;6.064;2023-12-04T07:58:39;0.90;99.90
57664;DHT22;43493;53.098;6.064;2023-12-04T08:01:05;1.00;99.90
57664;DHT22;43493;53.098;6.064;2023-12-04T08:03:31;1.00;99.90
57664;DHT22;43493;53.098;6.064;2023-12-04T08:05:57;0.90;99.90
57664;DHT22;43493;53.098;6.064;2023-12-04T08:08:24;0.90;99.90
57664;DHT22;43493;53.098;6.064;2023-12-04T08:10:50;0.90;99.90
57664;DHT22;43493;53.098;6.064;2023-12-04T08:13:16;1.00;99.90
57664;DHT22;43493;53.098;6.064;2023-12-04T08:15:43;1.00;99.90
57664;DHT22;43493;53.098;6.064;2023-12-04T08:18:09;1.00;99.90
57664;DHT22;43493;53.098;6.064;2023-12-04T08:20:35;0.90;99.90
57664;DHT22;43493;53.098;6.064;2023-12-04T08:23:01;1.00;99.90
57664;DHT22;43493;53.098;6.064;2023-12-04T08:25:26;1.00;99.90
57664;DHT22;43493;53.098;6.064;2023-12-04T08:27:52;1.00;99.90
57664;DHT22;43493;53.098;6.064;2023-12-04T08:30:18;1.00;99.90
57664;DHT22;43493;53.098;6.064;2023-12-04T08:32:44;1.00;99.90
57664;DHT22;43493;53.098;6.064;2023-12-04T08:35:09;1.00;99.90
57664;DHT22;43493;53.098;6.064;2023-12-04T08:37:35;1.00;99.90
57664;DHT22;43493;53.098;6.064;2023-12-04T08:40:01;1.10;99.90
57664;DHT22;43493;53.098;6.064;2023-12-04T08:42:28;1.00;99.90
57664;DHT22;43493;53.098;6.064;2023-12-04T08:44:55;1.10;99.90
57664;DHT22;43493;53.098;6.064;2023-12-04T08:47:20;1.10;99.90
57664;DHT22;43493;53.098;6.064;2023-12-04T08:49:46;1.00;99.90
57664;DHT22;43493;53.098;6.064;2023-12-04T08:52:12;1.10;99.90
57664;DHT22;43493;53.098;6.064;2023-12-04T08:54:41;1.00;99.90
57664;DHT22;43493;53.098;6.064;2023-12-04T08:57:10;1.10;99.90
57664;DHT22;43493;53.098;6.064;2023-12-04T08:59:36;1.10;99.90
57664;DHT22;43493;53.098;6.064;2023-12-04T09:02:01;1.10;99.90
57664;DHT22;43493;53.098;6.064;2023-12-04T09:04:31;1.10;99.90
57664;DHT22;43493;53.098;6.064;2023-12-04T09:06:57;1.10;99.90
57664;DHT22;43493;53.098;6.064;2023-12-04T09:09:23;1.10;99.90
57664;DHT22;43493;53.098;6.064;2023-12-04T09:11:49;1.10;99.90
57664;DHT22;43493;53.098;6.064;2023-12-04T09:14:14;1.10;99.90
57664;DHT22;43493;53.098;6.064;2023-12-04T09:16:41;1.20;99.90
57664;DHT22;43493;53.098;6.064;2023-12-04T09:19:07;1.10;99.90
57664;DHT22;43493;53.098;6.064;2023-12-04T09:21:33;1.10;99.90
57664;DHT22;43493;53.098;6.064;2023-12-04T09:23:59;1.10;99.90
57664;DHT22;43493;53.098;6.064;2023-12-04T09:26:24;1.10;99.90
57664;DHT22;43493;53.098;6.064;2023-12-04T09:28:50;1.10;99.90
57664;DHT22;43493;53.098;6.064;2023-12-04T09:31:16;1.10;99.90
57664;DHT22;43493;53.098;6.064;2023-12-04T09:33:42;1.00;99.90
57664;DHT22;43493;53.098;6.064;2023-12-04T09:36:08;1.20;99.90
57664;DHT22;43493;53.098;6.064;2023-12-04T09:38:34;1.20;99.90
57664;DHT22;43493;53.098;6.064;2023-12-04T09:41:01;1.20;99.90
57664;DHT22;43493;53.098;6.064;2023-12-04T09:43:31;1.20;99.90
57664;DHT22;43493;53.098;6.064;2023-12-04T09:46:01;1.20;99.90
57664;DHT22;43493;53.098;6.064;2023-12-04T09:48:27;1.20;99.90
57664;DHT22;43493;53.098;6.064;2023-12-04T09:50:54;1.20;99.90
57664;DHT22;43493;53.098;6.064;2023-12-04T09:53:20;1.20;99.90
57664;DHT22;43493;53.098;6.064;2023-12-04T09:55:50;1.20;99.90
57664;DHT22;43493;53.098;6.064;2023-12-04T09:58:21;1.30;99.90
57664;DHT22;43493;53.098;6.064;2023-12-04T10:00:51;1.30;99.90
57664;DHT22;43493;53.098;6.064;2023-12-04T10:03:20;1.30;99.90
57664;DHT22;43493;53.098;6.064;2023-12-04T10:05:46;1.30;99.90
57664;DHT22;43493;53.098;6.064;2023-12-04T10:08:12;1.40;99.90
57664;DHT22;43493;53.098;6.064;2023-12-04T10:10:38;1.40;99.90
57664;DHT22;43493;53.098;6.064;2023-12-04T10:13:03;1.30;99.90
57664;DHT22;43493;53.098;6.064;2023-12-04T10:15:29;1.40;99.90
57664;DHT22;43493;53.098;6.064;2023-12-04T10:17:55;1.40;99.90
57664;DHT22;43493;53.098;6.064;2023-12-04T10:20:21;1.40;99.90
57664;DHT22;43493;53.098;6.064;2023-12-04T10:23:00;1.40;99.90
57664;DHT22;43493;53.098;6.064;2023-12-04T10:25:28;1.50;99.90
57664;DHT22;43493;53.098;6.064;2023-12-04T10:28:08;1.40;99.90
57664;DHT22;43493;53.098;6.064;2023-12-04T10:30:34;1.50;99.90
57664;DHT22;43493;53.098;6.064;2023-12-04T10:33:05;1.50;99.90
57664;DHT22;43493;53.098;6.064;2023-12-04T10:35:32;1.50;99.90
57664;DHT22;43493;53.098;6.064;2023-12-04T10:37:59;1.60;99.90
57664;DHT22;43493;53.098;6.064;2023-12-04T10:40:30;1.60;99.90
57664;DHT22;43493;53.098;6.064;2023-12-04T10:45:35;1.70;99.90
57664;DHT22;43493;53.098;6.064;2023-12-04T10:48:02;1.70;99.90
57664;DHT22;43493;53.098;6.064;2023-12-04T10:50:35;1.70;99.90
57664;DHT22;43493;53.098;6.064;2023-12-04T10:53:12;1.70;99.90
57664;DHT22;43493;53.098;6.064;2023-12-04T10:55:39;1.80;99.90
57664;DHT22;43493;53.098;6.064;2023-12-04T10:58:13;1.80;99.90
57664;DHT22;43493;53.098;6.064;2023-12-04T11:00:47;1.80;99.90
57664;DHT22;43493;53.098;6.064;2023-12-04T11:03:21;1.80;99.90
57664;DHT22;43493;53.098;6.064;2023-12-04T11:05:55;1.80;99.90
57664;DHT22;43493;53.098;6.064;2023-12-04T11:08:23;1.80;99.90
57664;DHT22;43493;53.098;6.064;2023-12-04T11:10:56;1.80;99.90
57664;DHT22;43493;53.098;6.064;2023-12-04T11:13:35;1.80;99.90
57664;DHT22;43493;53.098;6.064;2023-12-04T11:16:09;1.80;99.90
57664;DHT22;43493;53.098;6.064;2023-12-04T11:18:38;1.70;99.90
57664;DHT22;43493;53.098;6.064;2023-12-04T11:21:10;1.80;99.90
57664;DHT22;43493;53.098;6.064;2023-12-04T11:23:37;1.80;99.90
57664;DHT22;43493;53.098;6.064;2023-12-04T11:26:04;1.80;99.90
57664;DHT22;43493;53.098;6.064;2023-12-04T11:28:31;1.70;99.90
57664;DHT22;43493;53.098;6.064;2023-12-04T11:30:59;1.70;99.90
57664;DHT22;43493;53.098;6.064;2023-12-04T11:33:26;1.70;99.90
57664;DHT22;43493;53.098;6.064;2023-12-04T11:35:52;1.70;99.90
57664;DHT22;43493;53.098;6.064;2023-12-04T11:38:18;1.70;99.90
57664;DHT22;43493;53.098;6.064;2023-12-04T11:40:46;1.70;99.90
57664;DHT22;43493;53.098;6.064;2023-12-04T11:43:23;1.60;99.90
57664;DHT22;43493;53.098;6.064;2023-12-04T11:45:49;1.70;99.90
57664;DHT22;43493;53.098;6.064;2023-12-04T11:48:15;1.70;99.90
57664;DHT22;43493;53.098;6.064;2023-12-04T11:50:43;1.60;99.90
57664;DHT22;43493;53.098;6.064;2023-12-04T11:53:10;1.70;99.90
57664;DHT22;43493;53.098;6.064;2023-12-04T11:55:40;1.70;99.90
57664;DHT22;43493;53.098;6.064;2023-12-04T11:58:10;1.60;99.90
57664;DHT22;43493;53.098;6.064;2023-12-04T12:00:36;1.60;99.90
57664;DHT22;43493;53.098;6.064;2023-12-04T12:03:06;1.70;99.90
57664;DHT22;43493;53.098;6.064;2023-12-04T12:05:35;1.70;99.90
57664;DHT22;43493;53.098;6.064;2023-12-04T12:08:02;1.70;99.90
57664;DHT22;43493;53.098;6.064;2023-12-04T12:10:29;1.60;99.90
57664;DHT22;43493;53.098;6.064;2023-12-04T12:12:56;1.60;99.90
57664;DHT22;43493;53.098;6.064;2023-12-04T12:15:22;1.60;99.90
57664;DHT22;43493;53.098;6.064;2023-12-04T12:17:49;1.70;99.90
57664;DHT22;43493;53.098;6.064;2023-12-04T12:20:15;1.60;99.90
57664;DHT22;43493;53.098;6.064;2023-12-04T12:22:41;1.60;99.90
57664;DHT22;43493;53.098;6.064;2023-12-04T12:25:10;1.60;99.90
57664;DHT22;43493;53.098;6.064;2023-12-04T12:27:37;1.60;99.90
57664;DHT22;43493;53.098;6.064;2023-12-04T12:30:03;1.70;99.90
57664;DHT22;43493;53.098;6.064;2023-12-04T12:32:36;1.60;99.90
57664;DHT22;43493;53.098;6.064;2023-12-04T12:35:02;1.60;99.90
57664;DHT22;43493;53.098;6.064;2023-12-04T12:37:29;1.60;99.90
57664;DHT22;43493;53.098;6.064;2023-12-04T12:39:55;1.70;99.90
57664;DHT22;43493;53.098;6.064;2023-12-04T12:42:27;1.60;99.90
57664;DHT22;43493;53.098;6.064;2023-12-04T12:44:53;1.60;99.90
57664;DHT22;43493;53.098;6.064;2023-12-04T12:47:20;1.50;99.90
57664;DHT22;43493;53.098;6.064;2023-12-04T12:49:47;1.60;99.90
57664;DHT22;43493;53.098;6.064;2023-12-04T12:52:13;1.60;99.90
57664;DHT22;43493;53.098;6.064;2023-12-04T12:54:43;1.60;99.90
57664;DHT22;43493;53.098;6.064;2023-12-04T12:57:10;1.60;99.90
57664;DHT22;43493;53.098;6.064;2023-12-04T12:59:40;1.60;99.90
57664;DHT22;43493;53.098;6.064;2023-12-04T13:02:07;1.60;99.90
57664;DHT22;43493;53.098;6.064;2023-12-04T13:04:36;1.60;99.90
57664;DHT22;43493;53.098;6.064;2023-12-04T13:07:03;1.60;99.90
57664;DHT22;43493;53.098;6.064;2023-12-04T13:09:29;1.60;99.90
57664;DHT22;43493;53.098;6.064;2023-12-04T13:11:55;1.70;99.90
57664;DHT22;43493;53.098;6.064;2023-12-04T13:14:21;1.70;99.90
57664;DHT22;43493;53.098;6.064;2023-12-04T13:16:46;1.70;99.90
57664;DHT22;43493;53.098;6.064;2023-12-04T13:19:12;1.70;99.90
57664;DHT22;43493;53.098;6.064;2023-12-04T13:21:38;1.70;99.90
57664;DHT22;43493;53.098;6.064;2023-12-04T13:24:04;1.70;99.90
57664;DHT22;43493;53.098;6.064;2023-12-04T13:26:33;1.70;99.90
57664;DHT22;43493;53.098;6.064;2023-12-04T13:28:59;1.70;99.90
57664;DHT22;43493;53.098;6.064;2023-12-04T13:31:25;1.70;99.90
57664;DHT22;43493;53.098;6.064;2023-12-04T13:33:50;1.70;99.90
57664;DHT22;43493;53.098;6.064;2023-12-04T13:36:17;1.70;99.90
57664;DHT22;43493;53.098;6.064;2023-12-04T13:38:43;1.70;99.90
57664;DHT22;43493;53.098;6.064;2023-12-04T13:41:08;1.80;99.90
57664;DHT22;43493;53.098;6.064;2023-12-04T13:43:54;1.70;99.90
57664;DHT22;43493;53.098;6.064;2023-12-04T13:46:22;1.70;99.90
57664;DHT22;43493;53.098;6.064;2023-12-04T13:48:48;1.80;99.90
57664;DHT22;43493;53.098;6.064;2023-12-04T13:51:14;1.70;99.90
57664;DHT22;43493;53.098;6.064;2023-12-04T13:53:40;1.70;99.90
57664;DHT22;43493;53.098;6.064;2023-12-04T13:56:13;1.70;99.90
57664;DHT22;43493;53.098;6.064;2023-12-04T13:59:09;1.70;99.90
57664;DHT22;43493;53.098;6.064;2023-12-04T14:01:44;1.70;99.90
57664;DHT22;43493;53.098;6.064;2023-12-04T14:04:10;1.60;99.90
57664;DHT22;43493;53.098;6.064;2023-12-04T14:06:35;1.70;99.90
57664;DHT22;43493;53.098;6.064;2023-12-04T14:09:01;1.70;99.90
57664;DHT22;43493;53.098;6.064;2023-12-04T14:11:27;1.70;99.90
57664;DHT22;43493;53.098;6.064;2023-12-04T14:13:53;1.70;99.90
57664;DHT22;43493;53.098;6.064;2023-12-04T14:16:19;1.70;99.90
57664;DHT22;43493;53.098;6.064;2023-12-04T14:18:44;1.70;99.90
57664;DHT22;43493;53.098;6.064;2023-12-04T14:21:11;1.70;99.90
57664;DHT22;43493;53.098;6.064;2023-12-04T14:23:37;1.70;99.90
57664;DHT22;43493;53.098;6.064;2023-12-04T14:26:03;1.70;99.90
57664;DHT22;43493;53.098;6.064;2023-12-04T14:28:29;1.70;99.90
57664;DHT22;43493;53.098;6.064;2023-12-04T14:30:55;1.70;99.90
57664;DHT22;43493;53.098;6.064;2023-12-04T14:33:21;1.70;99.90
57664;DHT22;43493;53.098;6.064;2023-12-04T14:35:47;1.70;99.90
57664;DHT22;43493;53.098;6.064;2023-12-04T14:38:13;1.70;99.90
57664;DHT22;43493;53.098;6.064;2023-12-04T14:40:40;1.70;99.90
57664;DHT22;43493;53.098;6.064;2023-12-04T14:43:05;1.70;99.90
57664;DHT22;43493;53.098;6.064;2023-12-04T14:45:35;1.70;99.90
57664;DHT22;43493;53.098;6.064;2023-12-04T14:48:02;1.70;99.90
57664;DHT22;43493;53.098;6.064;2023-12-04T14:50:30;1.60;99.90
57664;DHT22;43493;53.098;6.064;2023-12-04T14:52:56;1.60;99.90
57664;DHT22;43493;53.098;6.064;2023-12-04T14:55:23;1.60;99.90
57664;DHT22;43493;53.098;6.064;2023-12-04T14:57:52;1.60;99.90
57664;DHT22;43493;53.098;6.064;2023-12-04T15:00:21;1.50;99.90
57664;DHT22;43493;53.098;6.064;2023-12-04T15:03:05;1.50;99.90
57664;DHT22;43493;53.098;6.064;2023-12-04T15:05:40;1.50;99.90
57664;DHT22;43493;53.098;6.064;2023-12-04T15:08:25;1.50;99.90
57664;DHT22;43493;53.098;6.064;2023-12-04T15:11:09;1.40;99.90
57664;DHT22;43493;53.098;6.064;2023-12-04T15:13:54;1.40;99.90
57664;DHT22;43493;53.098;6.064;2023-12-04T15:16:39;1.40;99.90
57664;DHT22;43493;53.098;6.064;2023-12-04T15:19:12;1.30;99.90
57664;DHT22;43493;53.098;6.064;2023-12-04T15:21:38;1.30;99.90
57664;DHT22;43493;53.098;6.064;2023-12-04T15:24:05;1.20;99.90
57664;DHT22;43493;53.098;6.064;2023-12-04T15:26:32;1.20;99.90
57664;DHT22;43493;53.098;6.064;2023-12-04T15:28:58;1.20;99.90
57664;DHT22;43493;53.098;6.064;2023-12-04T15:31:23;1.20;99.90
57664;DHT22;43493;53.098;6.064;2023-12-04T15:33:49;1.20;99.90
57664;DHT22;43493;53.098;6.064;2023-12-04T15:36:15;1.20;99.90
57664;DHT22;43493;53.098;6.064;2023-12-04T15:38:41;1.20;99.90
57664;DHT22;43493;53.098;6.064;2023-12-04T15:41:06;1.20;99.90
57664;DHT22;43493;53.098;6.064;2023-12-04T15:43:34;1.10;99.90
57664;DHT22;43493;53.098;6.064;2023-12-04T15:46:00;1.10;99.90